createdAt,value
2017-09-26T00:00:16.247Z,13.90
2017-09-26T00:02:43.863Z,13.90
2017-09-26T00:05:11.513Z,13.90
2017-09-26T00:07:39.122Z,13.90
2017-09-26T00:10:06.833Z,13.90
2017-09-26T00:12:34.478Z,13.80
2017-09-26T00:15:02.864Z,13.80
2017-09-26T00:17:31.244Z,13.80
2017-09-26T00:19:58.920Z,13.80
2017-09-26T00:22:26.524Z,13.80
2017-09-26T00:24:54.148Z,13.80
2017-09-26T00:27:22.571Z,13.80
2017-09-26T00:29:50.192Z,13.80
2017-09-26T00:32:17.806Z,13.80
2017-09-26T00:34:46.242Z,13.80
2017-09-26T00:37:13.873Z,13.80
2017-09-26T00:39:41.524Z,13.80
2017-09-26T00:42:09.291Z,13.80
2017-09-26T00:44:36.857Z,13.80
2017-09-26T00:47:05.195Z,13.70
2017-09-26T00:49:32.834Z,13.70
2017-09-26T00:52:00.440Z,13.70
2017-09-26T00:54:28.015Z,13.70
2017-09-26T00:56:55.651Z,13.70
2017-09-26T00:59:23.224Z,13.70
2017-09-26T01:01:50.802Z,13.70
2017-09-26T01:04:18.604Z,13.70
2017-09-26T01:06:47.082Z,13.80
2017-09-26T01:09:14.654Z,13.70
2017-09-26T01:11:42.286Z,13.70
2017-09-26T01:14:10.623Z,13.80
2017-09-26T01:16:38.195Z,13.80
2017-09-26T01:19:06.578Z,13.90
2017-09-26T01:21:34.159Z,13.80
2017-09-26T01:24:01.746Z,13.80
2017-09-26T01:26:30.323Z,13.80
2017-09-26T01:28:59.570Z,13.80
2017-09-26T01:31:27.150Z,13.80
2017-09-26T01:33:54.994Z,13.90
2017-09-26T01:36:23.343Z,13.80
2017-09-26T01:38:51.683Z,13.80
2017-09-26T01:41:21.094Z,13.80
2017-09-26T01:43:49.440Z,13.70
2017-09-26T01:46:17.024Z,13.70
2017-09-26T01:48:44.750Z,13.80
2017-09-26T01:51:13.085Z,13.70
2017-09-26T01:53:40.662Z,13.70
2017-09-26T01:56:09.150Z,13.70
2017-09-26T01:58:37.526Z,13.70
2017-09-26T02:01:05.104Z,13.70
2017-09-26T02:03:32.725Z,13.70
2017-09-26T02:06:00.320Z,13.70
2017-09-26T02:08:28.666Z,13.70
2017-09-26T02:10:56.297Z,13.70
2017-09-26T02:13:23.874Z,13.70
2017-09-26T02:15:52.211Z,13.60
2017-09-26T02:18:19.977Z,13.60
2017-09-26T02:20:48.314Z,13.70
2017-09-26T02:23:15.898Z,13.60
2017-09-26T02:25:44.458Z,13.60
2017-09-26T02:28:12.803Z,13.60
2017-09-26T02:30:41.154Z,13.60
2017-09-26T02:33:08.926Z,13.60
2017-09-26T02:35:37.269Z,13.70
2017-09-26T02:38:04.861Z,13.60
2017-09-26T02:40:32.486Z,13.70
2017-09-26T02:43:00.080Z,13.60
2017-09-26T02:45:27.654Z,13.70
2017-09-26T02:47:56.055Z,13.70
2017-09-26T02:50:23.632Z,13.70
2017-09-26T02:52:51.216Z,13.70
2017-09-26T02:55:19.707Z,13.70
2017-09-26T02:57:47.285Z,13.70
2017-09-26T03:00:14.851Z,13.70
2017-09-26T03:02:42.476Z,13.70
2017-09-26T03:05:10.057Z,13.70
2017-09-26T03:07:38.407Z,13.70
2017-09-26T03:10:06.167Z,13.70
2017-09-26T03:12:34.511Z,13.70
2017-09-26T03:15:02.858Z,13.70
2017-09-26T03:17:30.634Z,13.70
2017-09-26T03:19:58.978Z,13.70
2017-09-26T03:22:26.546Z,13.80
2017-09-26T03:24:54.943Z,13.70
2017-09-26T03:27:22.518Z,13.70
2017-09-26T03:29:50.093Z,13.70
2017-09-26T03:32:18.478Z,13.80
2017-09-26T03:34:46.050Z,13.80
2017-09-26T03:37:14.108Z,13.80
2017-09-26T03:39:41.955Z,13.80
2017-09-26T03:42:09.526Z,13.70
2017-09-26T03:44:37.097Z,13.70
2017-09-26T03:47:05.638Z,13.80
2017-09-26T03:49:33.210Z,13.70
2017-09-26T03:52:00.784Z,13.70
2017-09-26T03:54:28.422Z,13.80
2017-09-26T03:56:55.995Z,13.80
2017-09-26T03:59:23.589Z,13.70
2017-09-26T04:01:51.327Z,13.70
2017-09-26T04:04:19.685Z,13.70
2017-09-26T04:06:48.030Z,13.80
2017-09-26T04:09:15.759Z,13.70
2017-09-26T04:11:43.342Z,13.80
2017-09-26T04:14:11.689Z,13.70
2017-09-26T04:16:40.273Z,13.80
2017-09-26T04:19:08.618Z,13.80
2017-09-26T04:21:36.194Z,13.70
2017-09-26T04:24:03.927Z,13.80
2017-09-26T04:26:31.513Z,13.70
2017-09-26T04:28:59.094Z,13.80
2017-09-26T04:31:26.860Z,13.80
2017-09-26T04:33:55.198Z,13.80
2017-09-26T04:36:22.766Z,13.80
2017-09-26T04:38:51.150Z,13.80
2017-09-26T04:41:18.728Z,13.80
2017-09-26T04:43:46.291Z,13.90
2017-09-26T04:46:13.919Z,13.80
2017-09-26T04:48:41.490Z,13.80
2017-09-26T04:51:10.554Z,13.80
2017-09-26T04:53:38.330Z,13.80
2017-09-26T04:56:06.669Z,13.80
2017-09-26T04:58:35.751Z,13.80
2017-09-26T05:01:04.538Z,13.80
2017-09-26T05:03:32.883Z,13.90
2017-09-26T05:06:00.494Z,13.90
2017-09-26T05:08:28.297Z,13.90
2017-09-26T05:10:55.879Z,13.90
2017-09-26T05:13:23.450Z,13.90
2017-09-26T05:15:51.082Z,14.00
2017-09-26T05:18:18.661Z,14.00
2017-09-26T05:20:47.003Z,14.00
2017-09-26T05:23:14.619Z,14.00
2017-09-26T05:25:42.193Z,14.00
2017-09-26T05:28:09.753Z,14.00
2017-09-26T05:30:38.334Z,14.00
2017-09-26T05:33:06.682Z,14.00
2017-09-26T05:35:34.255Z,14.00
2017-09-26T05:38:01.866Z,14.00
2017-09-26T05:40:29.492Z,14.10
2017-09-26T05:42:57.066Z,14.10
2017-09-26T05:45:25.459Z,14.10
2017-09-26T05:47:53.035Z,14.10
2017-09-26T05:50:20.814Z,14.10
2017-09-26T05:52:49.272Z,14.10
2017-09-26T05:55:16.867Z,14.20
2017-09-26T05:57:44.670Z,14.20
2017-09-26T06:00:12.287Z,14.20
2017-09-26T06:02:40.300Z,14.20
2017-09-26T06:05:07.870Z,14.20
2017-09-26T06:07:35.569Z,14.20
2017-09-26T06:10:03.898Z,14.20
2017-09-26T06:12:31.545Z,14.20
2017-09-26T06:14:59.172Z,14.30
2017-09-26T06:17:26.750Z,14.30
2017-09-26T06:19:54.322Z,14.40
2017-09-26T06:22:21.955Z,14.30
2017-09-26T06:24:50.296Z,14.30
2017-09-26T06:27:20.671Z,14.30
2017-09-26T06:29:48.477Z,14.30
2017-09-26T06:32:16.810Z,14.30
2017-09-26T06:34:44.382Z,14.30
2017-09-26T06:37:12.822Z,14.30
2017-09-26T06:39:40.398Z,14.30
2017-09-26T06:42:07.970Z,14.30
2017-09-26T06:44:35.604Z,14.30
2017-09-26T06:47:03.180Z,14.40
2017-09-26T06:49:30.755Z,14.40
2017-09-26T06:51:59.162Z,14.40
2017-09-26T06:54:26.738Z,14.40
2017-09-26T06:56:54.305Z,14.40
2017-09-26T06:59:22.707Z,14.40
2017-09-26T07:01:50.283Z,14.40
2017-09-26T07:04:18.306Z,14.50
2017-09-26T07:06:46.122Z,14.40
2017-09-26T07:09:14.466Z,14.50
2017-09-26T07:11:42.798Z,14.50
2017-09-26T07:14:10.422Z,14.50
2017-09-26T07:16:38.000Z,14.60
2017-09-26T07:19:05.574Z,14.60
2017-09-26T07:21:34.145Z,14.60
2017-09-26T07:24:02.482Z,14.60
2017-09-26T07:26:30.051Z,14.60
2017-09-26T07:28:58.446Z,14.60
2017-09-26T07:31:26.018Z,14.60
2017-09-26T07:33:53.596Z,14.60
2017-09-26T07:36:21.990Z,14.60
2017-09-26T07:38:49.566Z,14.60
2017-09-26T07:41:17.135Z,14.60
2017-09-26T07:43:44.863Z,14.70
2017-09-26T07:46:12.430Z,14.60
2017-09-26T07:48:41.594Z,14.80
2017-09-26T07:51:09.215Z,14.80
2017-09-26T07:53:36.786Z,14.90
2017-09-26T07:56:04.349Z,14.80
2017-09-26T07:58:32.060Z,14.90
2017-09-26T08:00:59.978Z,14.80
2017-09-26T08:03:27.801Z,14.70
2017-09-26T08:05:56.508Z,14.50
2017-09-26T08:08:24.338Z,14.60
2017-09-26T08:10:52.662Z,14.70
2017-09-26T08:13:20.278Z,14.70
2017-09-26T08:15:47.858Z,14.70
2017-09-26T08:18:15.425Z,14.70
2017-09-26T08:20:43.813Z,14.60
2017-09-26T08:23:11.375Z,14.70
2017-09-26T08:25:38.950Z,14.60
2017-09-26T08:28:06.659Z,14.60
2017-09-26T08:30:34.230Z,14.60
2017-09-26T08:33:01.809Z,14.70
2017-09-26T08:35:30.190Z,14.70
2017-09-26T08:37:57.750Z,14.70
2017-09-26T08:40:25.342Z,14.80
2017-09-26T08:42:53.746Z,15.00
2017-09-26T08:45:21.306Z,15.00
2017-09-26T08:47:48.874Z,14.90
2017-09-26T08:50:16.487Z,14.90
2017-09-26T08:52:44.065Z,14.80
2017-09-26T08:55:11.642Z,14.80
2017-09-26T08:57:40.034Z,14.80
2017-09-26T09:00:07.601Z,14.80
2017-09-26T09:02:35.166Z,14.80
2017-09-26T09:05:02.939Z,14.80
2017-09-26T09:07:31.274Z,14.80
2017-09-26T09:09:58.863Z,14.80
2017-09-26T09:12:26.479Z,14.80
2017-09-26T09:14:54.823Z,14.70
2017-09-26T09:17:22.391Z,14.70
2017-09-26T09:19:50.794Z,14.70
2017-09-26T09:22:18.380Z,14.70
2017-09-26T09:24:45.950Z,14.70
2017-09-26T09:27:14.434Z,14.70
2017-09-26T09:29:42.027Z,14.60
2017-09-26T09:32:09.598Z,14.60
2017-09-26T09:34:38.126Z,14.70
2017-09-26T09:37:05.695Z,14.70
2017-09-26T09:39:33.253Z,14.80
2017-09-26T09:42:01.634Z,14.90
2017-09-26T09:44:29.206Z,14.80
2017-09-26T09:46:56.780Z,15.00
2017-09-26T09:49:24.411Z,15.10
2017-09-26T09:51:51.978Z,15.20
2017-09-26T09:54:20.415Z,15.10
2017-09-26T09:56:48.050Z,15.00
2017-09-26T09:59:15.619Z,15.00
2017-09-26T10:01:43.189Z,15.00
2017-09-26T10:04:11.672Z,15.00
2017-09-26T10:06:39.256Z,15.00
2017-09-26T10:09:06.826Z,15.00
2017-09-26T10:11:34.466Z,15.00
2017-09-26T10:14:02.803Z,15.10
2017-09-26T10:16:30.375Z,15.00
2017-09-26T10:18:58.906Z,15.10
2017-09-26T10:21:26.487Z,15.10
2017-09-26T10:23:54.819Z,15.30
2017-09-26T10:26:22.607Z,15.30
2017-09-26T10:28:50.943Z,15.30
2017-09-26T10:31:18.514Z,15.30
2017-09-26T10:33:46.899Z,15.30
2017-09-26T10:36:14.470Z,15.30
2017-09-26T10:38:42.044Z,15.30
2017-09-26T10:41:09.678Z,15.30
2017-09-26T10:43:37.353Z,15.30
2017-09-26T10:46:05.694Z,15.40
2017-09-26T10:48:33.533Z,15.40
2017-09-26T10:51:01.107Z,15.50
2017-09-26T10:53:29.442Z,15.70
2017-09-26T10:55:57.057Z,15.70
2017-09-26T10:58:24.627Z,15.80
2017-09-26T11:00:52.195Z,15.90
2017-09-26T11:03:20.569Z,16.00
2017-09-26T11:05:48.902Z,16.00
2017-09-26T11:08:16.477Z,16.00
2017-09-26T11:10:44.134Z,16.00
2017-09-26T11:13:11.706Z,15.90
2017-09-26T11:15:39.262Z,15.80
2017-09-26T11:18:06.882Z,15.80
2017-09-26T11:20:34.461Z,15.80
2017-09-26T11:23:02.035Z,15.80
2017-09-26T11:25:30.418Z,15.80
2017-09-26T11:27:58.005Z,15.80
2017-09-26T11:30:25.574Z,15.90
2017-09-26T11:32:53.199Z,16.00
2017-09-26T11:35:20.767Z,16.20
2017-09-26T11:37:49.107Z,16.40
2017-09-26T11:40:16.718Z,16.40
2017-09-26T11:42:44.286Z,16.40
2017-09-26T11:45:11.892Z,16.40
2017-09-26T11:47:39.605Z,16.30
2017-09-26T11:50:07.182Z,16.20
2017-09-26T11:52:34.754Z,16.30
2017-09-26T11:55:02.545Z,16.30
2017-09-26T11:57:30.982Z,16.40
2017-09-26T11:59:58.565Z,16.40
2017-09-26T12:02:26.962Z,16.40
2017-09-26T12:04:54.530Z,16.40
2017-09-26T12:07:22.096Z,16.40
2017-09-26T12:09:49.718Z,16.40
2017-09-26T12:12:17.288Z,16.40
2017-09-26T12:14:44.875Z,16.40
2017-09-26T12:17:12.707Z,16.40
2017-09-26T12:19:40.300Z,16.40
2017-09-26T12:22:07.877Z,16.40
2017-09-26T12:24:36.262Z,16.30
2017-09-26T12:27:03.850Z,16.30
2017-09-26T12:29:31.418Z,16.30
2017-09-26T12:31:59.043Z,16.40
2017-09-26T12:34:26.614Z,16.50
2017-09-26T12:36:54.950Z,16.60
2017-09-26T12:39:24.083Z,16.70
2017-09-26T12:41:51.645Z,16.70
2017-09-26T12:44:19.214Z,16.80
2017-09-26T12:46:46.838Z,16.90
2017-09-26T12:49:14.406Z,16.80
2017-09-26T12:51:41.970Z,16.80
2017-09-26T12:54:09.690Z,16.90
2017-09-26T12:56:37.268Z,17.00
2017-09-26T12:59:05.607Z,17.10
2017-09-26T13:01:33.446Z,17.10
2017-09-26T13:04:01.034Z,17.20
2017-09-26T13:06:29.367Z,17.30
2017-09-26T13:08:56.986Z,17.30
2017-09-26T13:11:24.555Z,17.30
2017-09-26T13:13:52.122Z,17.30
2017-09-26T13:16:20.502Z,17.50
2017-09-26T13:18:48.072Z,17.50
2017-09-26T13:21:15.639Z,17.60
2017-09-26T13:23:43.418Z,17.60
2017-09-26T13:26:11.747Z,17.60
2017-09-26T13:28:39.310Z,17.60
2017-09-26T13:31:07.072Z,17.60
2017-09-26T13:33:35.408Z,17.70
2017-09-26T13:36:02.973Z,17.70
2017-09-26T13:38:31.404Z,17.80
2017-09-26T13:40:58.981Z,17.80
2017-09-26T13:43:27.324Z,17.90
2017-09-26T13:45:54.959Z,17.90
2017-09-26T13:48:22.536Z,17.90
2017-09-26T13:50:50.960Z,17.70
2017-09-26T13:53:18.726Z,17.70
2017-09-26T13:55:46.298Z,17.70
2017-09-26T13:58:14.647Z,17.60
2017-09-26T14:00:43.031Z,17.50
2017-09-26T14:03:10.604Z,17.60
2017-09-26T14:05:38.590Z,17.60
2017-09-26T14:08:06.202Z,17.60
2017-09-26T14:10:33.781Z,17.60
2017-09-26T14:13:01.346Z,17.70
2017-09-26T14:15:29.738Z,17.70
2017-09-26T14:17:57.314Z,17.70
2017-09-26T14:20:24.894Z,17.80
2017-09-26T14:22:53.482Z,17.70
2017-09-26T14:25:21.058Z,17.70
2017-09-26T14:27:48.630Z,17.70
2017-09-26T14:30:16.353Z,17.70
2017-09-26T14:32:43.957Z,17.70
2017-09-26T14:35:11.545Z,17.70
2017-09-26T14:37:39.298Z,17.70
2017-09-26T14:40:07.047Z,17.70
2017-09-26T14:42:34.638Z,17.70
2017-09-26T14:45:02.906Z,17.80
2017-09-26T14:47:30.472Z,17.80
2017-09-26T14:49:58.897Z,17.90
2017-09-26T14:52:27.307Z,17.90
2017-09-26T14:54:55.192Z,17.90
2017-09-26T14:57:23.636Z,17.90
2017-09-26T14:59:51.406Z,17.90
2017-09-26T15:02:19.751Z,17.90
2017-09-26T15:04:47.326Z,17.90
2017-09-26T15:07:15.719Z,17.80
2017-09-26T15:09:43.736Z,17.80
2017-09-26T15:12:11.357Z,17.80
2017-09-26T15:14:39.226Z,17.80
2017-09-26T15:17:06.818Z,17.80
2017-09-26T15:19:34.391Z,17.80
2017-09-26T15:22:02.173Z,17.80
2017-09-26T15:24:30.501Z,17.80
2017-09-26T15:26:58.070Z,17.70
2017-09-26T15:29:26.460Z,17.80
2017-09-26T15:31:54.043Z,17.80
2017-09-26T15:34:22.267Z,17.70
2017-09-26T15:36:50.168Z,17.60
2017-09-26T15:39:17.942Z,17.40
2017-09-26T15:41:46.277Z,17.20
2017-09-26T15:44:14.059Z,17.20
2017-09-26T15:46:43.381Z,17.10
2017-09-26T15:49:11.069Z,17.10
2017-09-26T15:51:39.453Z,17.10
2017-09-26T15:54:07.798Z,17.10
2017-09-26T15:56:35.372Z,17.00
2017-09-26T15:59:03.114Z,17.00
2017-09-26T16:01:30.682Z,17.10
2017-09-26T16:03:58.256Z,17.00
2017-09-26T16:06:25.877Z,17.10
2017-09-26T16:08:53.450Z,17.00
2017-09-26T16:11:21.806Z,16.90
2017-09-26T16:13:49.427Z,16.90
2017-09-26T16:16:16.996Z,16.90
2017-09-26T16:18:44.583Z,16.80
2017-09-26T16:21:12.280Z,16.80
2017-09-26T16:23:39.868Z,16.80
2017-09-26T16:28:36.341Z,16.80
2017-09-26T16:31:03.991Z,16.80
2017-09-26T16:33:31.944Z,16.70
2017-09-26T16:35:59.586Z,16.70
2017-09-26T16:38:27.154Z,16.60
2017-09-26T16:40:54.786Z,16.60
2017-09-26T16:43:22.562Z,16.60
2017-09-26T16:45:50.134Z,16.50
2017-09-26T16:48:17.702Z,16.50
2017-09-26T16:50:45.319Z,16.50
2017-09-26T16:53:12.887Z,16.50
2017-09-26T16:55:40.467Z,16.50
2017-09-26T16:58:09.596Z,16.50
2017-09-26T17:00:37.164Z,16.50
2017-09-26T17:03:04.741Z,16.50
2017-09-26T17:05:33.134Z,16.50
2017-09-26T17:08:00.819Z,16.40
2017-09-26T17:10:28.390Z,16.50
2017-09-26T17:12:56.802Z,16.40
2017-09-26T17:15:24.371Z,16.30
2017-09-26T17:17:51.954Z,16.30
2017-09-26T17:20:19.606Z,16.30
2017-09-26T17:22:47.212Z,16.10
2017-09-26T17:25:14.778Z,16.10
2017-09-26T17:27:43.171Z,16.00
2017-09-26T17:30:10.767Z,16.00
2017-09-26T17:32:38.372Z,15.90
2017-09-26T17:35:06.007Z,15.90
2017-09-26T17:37:33.589Z,15.80
2017-09-26T17:40:01.157Z,15.80
2017-09-26T17:42:28.809Z,15.80
2017-09-26T17:44:57.193Z,15.80
2017-09-26T17:47:24.885Z,15.80
2017-09-26T17:49:54.883Z,15.80
2017-09-26T17:52:23.665Z,15.80
2017-09-26T17:54:51.529Z,15.80
2017-09-26T17:57:22.248Z,15.70
2017-09-26T17:59:50.700Z,15.70
2017-09-26T18:02:19.948Z,15.70
2017-09-26T18:04:47.676Z,15.70
2017-09-26T18:07:15.883Z,15.70
2017-09-26T18:09:45.135Z,15.70
2017-09-26T18:12:13.053Z,15.70
2017-09-26T18:14:41.386Z,15.70
2017-09-26T18:17:08.971Z,15.70
2017-09-26T18:19:37.694Z,15.70
2017-09-26T18:22:08.618Z,15.60
2017-09-26T18:24:38.252Z,15.60
2017-09-26T18:27:07.327Z,15.60
2017-09-26T18:29:37.394Z,15.60
2017-09-26T18:32:05.615Z,15.60
2017-09-26T18:34:33.288Z,15.60
2017-09-26T18:37:00.895Z,15.60
2017-09-26T18:39:29.248Z,15.60
2017-09-26T18:41:57.763Z,15.60
2017-09-26T18:44:25.373Z,15.60
2017-09-26T18:46:53.008Z,15.70
2017-09-26T18:49:20.697Z,15.70
2017-09-26T18:51:48.344Z,15.70
2017-09-26T18:54:18.402Z,15.60
2017-09-26T18:56:46.423Z,15.60
2017-09-26T18:59:17.288Z,15.60
2017-09-26T19:01:45.317Z,15.60
2017-09-26T19:04:16.653Z,15.60
2017-09-26T19:06:45.462Z,15.60
2017-09-26T19:09:13.032Z,15.60
2017-09-26T19:11:41.077Z,15.60
2017-09-26T19:14:10.643Z,15.50
2017-09-26T19:16:38.439Z,15.50
2017-09-26T19:19:06.143Z,15.50
2017-09-26T19:21:36.103Z,15.40
2017-09-26T19:24:11.493Z,15.40
2017-09-26T19:26:40.595Z,15.30
2017-09-26T19:29:09.858Z,15.40
2017-09-26T19:31:37.708Z,15.30
2017-09-26T19:34:06.371Z,15.30
2017-09-26T19:36:34.800Z,15.30
2017-09-26T19:39:03.327Z,15.30
2017-09-26T19:41:32.214Z,15.20
2017-09-26T19:44:03.220Z,15.20
2017-09-26T19:46:33.669Z,15.10
2017-09-26T19:49:03.567Z,15.10
2017-09-26T19:51:32.449Z,15.10
2017-09-26T19:54:01.914Z,15.10
2017-09-26T19:56:31.751Z,15.00
2017-09-26T19:59:02.359Z,15.00
2017-09-26T20:01:30.115Z,15.00
2017-09-26T20:03:57.702Z,15.00
2017-09-26T20:06:26.411Z,14.90
2017-09-26T20:08:53.993Z,14.90
2017-09-26T20:11:21.595Z,14.80
2017-09-26T20:13:49.217Z,14.80
2017-09-26T20:16:17.579Z,14.80
2017-09-26T20:18:45.162Z,14.80
2017-09-26T20:21:12.795Z,14.80
2017-09-26T20:23:40.368Z,14.70
2017-09-26T20:26:07.959Z,14.70
2017-09-26T20:28:35.593Z,14.60
2017-09-26T20:31:03.930Z,14.60
2017-09-26T20:33:31.506Z,14.50
2017-09-26T20:35:59.415Z,14.50
2017-09-26T20:38:27.002Z,14.50
2017-09-26T20:40:55.334Z,14.50
2017-09-26T20:43:22.959Z,14.50
2017-09-26T20:45:50.615Z,14.50
2017-09-26T20:48:19.700Z,14.40
2017-09-26T20:50:47.473Z,14.40
2017-09-26T20:53:15.806Z,14.40
2017-09-26T20:55:43.426Z,14.30
2017-09-26T20:58:11.086Z,14.30
2017-09-26T21:00:38.652Z,14.30
2017-09-26T21:03:06.229Z,14.20
2017-09-26T21:05:33.851Z,14.20
2017-09-26T21:08:02.200Z,14.20
2017-09-26T21:10:30.472Z,14.20
2017-09-26T21:12:58.861Z,14.10
2017-09-26T21:15:26.472Z,14.10
2017-09-26T21:17:54.821Z,14.10
2017-09-26T21:20:22.441Z,14.10
2017-09-26T21:22:50.019Z,14.10
2017-09-26T21:25:18.366Z,14.00
2017-09-26T21:27:45.991Z,14.00
2017-09-26T21:30:13.569Z,14.00
2017-09-26T21:32:41.144Z,13.90
2017-09-26T21:35:08.887Z,13.90
2017-09-26T21:37:36.475Z,13.90
2017-09-26T21:40:04.056Z,13.90
2017-09-26T21:42:32.635Z,13.80
2017-09-26T21:45:00.978Z,13.80
2017-09-26T21:47:28.550Z,13.80
2017-09-26T21:49:56.278Z,13.80
2017-09-26T21:52:24.714Z,13.70
2017-09-26T21:54:52.290Z,13.70
2017-09-26T21:57:20.693Z,13.70
2017-09-26T21:59:48.269Z,13.60
2017-09-26T22:02:15.845Z,13.60
2017-09-26T22:04:44.222Z,13.60
2017-09-26T22:07:11.796Z,13.60
2017-09-26T22:09:39.380Z,13.60
2017-09-26T22:12:06.994Z,13.60
2017-09-26T22:14:34.569Z,13.50
2017-09-26T22:17:02.147Z,13.50
2017-09-26T22:19:29.774Z,13.50
2017-09-26T22:21:58.123Z,13.40
2017-09-26T22:24:26.466Z,13.40
2017-09-26T22:26:55.131Z,13.40
2017-09-26T22:29:22.702Z,13.40
2017-09-26T22:31:51.134Z,13.40
2017-09-26T22:34:18.914Z,13.30
2017-09-26T22:36:47.258Z,13.30
2017-09-26T22:39:14.831Z,13.20
2017-09-26T22:41:43.391Z,13.30
2017-09-26T22:44:11.733Z,13.30
2017-09-26T22:46:39.309Z,13.20
2017-09-26T22:49:07.057Z,13.30
2017-09-26T22:51:34.636Z,13.30
2017-09-26T22:54:02.218Z,13.30
2017-09-26T22:56:29.842Z,13.20
2017-09-26T22:58:57.410Z,13.20
2017-09-26T23:01:25.023Z,13.20
2017-09-26T23:03:52.646Z,13.20
2017-09-26T23:06:20.228Z,13.20
2017-09-26T23:08:47.802Z,13.20
2017-09-26T23:11:16.327Z,13.20
2017-09-26T23:13:43.895Z,13.20
2017-09-26T23:16:12.238Z,13.30
2017-09-26T23:18:40.625Z,13.30
2017-09-26T23:21:08.967Z,13.30
2017-09-26T23:23:36.543Z,13.30
2017-09-26T23:26:04.290Z,13.30
2017-09-26T23:28:32.638Z,13.40
2017-09-26T23:31:00.979Z,13.40
2017-09-26T23:33:28.733Z,13.40
2017-09-26T23:35:56.306Z,13.40
2017-09-26T23:38:24.646Z,13.40
2017-09-26T23:40:52.411Z,13.40
2017-09-26T23:43:20.755Z,13.40
2017-09-26T23:45:48.341Z,13.40
2017-09-26T23:48:15.971Z,13.40
2017-09-26T23:50:43.551Z,13.40
2017-09-26T23:53:11.123Z,13.40
2017-09-26T23:55:38.737Z,13.50
2017-09-26T23:58:06.318Z,13.40
